createdAt,value
2023-02-02T00:00:52.242Z,6.95
2023-02-02T00:01:52.196Z,7.02
2023-02-02T00:02:52.271Z,7.07
2023-02-02T00:03:52.339Z,7.06
2023-02-02T00:04:52.198Z,7.08
2023-02-02T00:05:52.213Z,7.10
2023-02-02T00:06:52.213Z,7.11
2023-02-02T00:07:52.206Z,7.10
2023-02-02T00:08:52.291Z,7.09
2023-02-02T00:09:52.209Z,7.07
2023-02-02T00:10:52.215Z,6.96
2023-02-02T00:11:52.267Z,6.87
2023-02-02T00:12:52.230Z,6.84
2023-02-02T00:13:52.248Z,6.81
2023-02-02T00:15:52.308Z,6.79
2023-02-02T00:16:52.243Z,6.78
2023-02-02T00:17:52.234Z,6.79
2023-02-02T00:18:52.278Z,6.78
2023-02-02T00:20:52.268Z,6.77
2023-02-02T00:21:52.365Z,6.78
2023-02-02T00:23:52.251Z,6.79
2023-02-02T00:24:52.286Z,6.78
2023-02-02T00:25:52.284Z,6.81
2023-02-02T00:26:52.418Z,6.79
2023-02-02T00:27:52.252Z,6.81
2023-02-02T00:28:52.247Z,6.80
2023-02-02T00:29:52.296Z,6.84
2023-02-02T00:30:52.280Z,6.85
2023-02-02T00:31:52.368Z,6.80
2023-02-02T00:32:52.307Z,6.79
2023-02-02T00:34:52.275Z,6.80
2023-02-02T00:35:52.310Z,6.77
2023-02-02T00:36:52.309Z,6.75
2023-02-02T00:37:52.295Z,6.74
2023-02-02T00:38:52.300Z,6.76
2023-02-02T00:39:52.309Z,6.78
2023-02-02T00:40:52.303Z,6.82
2023-02-02T00:41:52.294Z,6.81
2023-02-02T00:42:52.312Z,6.85
2023-02-02T00:43:52.351Z,6.86
2023-02-02T00:44:52.332Z,6.88
2023-02-02T00:45:52.413Z,6.92
2023-02-02T00:46:52.343Z,6.89
2023-02-02T00:47:52.292Z,6.85
2023-02-02T00:48:52.318Z,6.78
2023-02-02T00:49:52.357Z,6.71
2023-02-02T00:50:52.358Z,6.70
2023-02-02T00:51:52.360Z,6.73
2023-02-02T00:52:52.349Z,6.74
2023-02-02T00:53:52.315Z,6.77
2023-02-02T00:54:52.373Z,6.73
2023-02-02T00:55:52.330Z,6.70
2023-02-02T00:56:52.363Z,6.68
2023-02-02T00:57:52.401Z,6.70
2023-02-02T00:58:52.319Z,6.65
2023-02-02T00:59:52.326Z,6.57
2023-02-02T01:00:52.553Z,6.49
2023-02-02T01:01:52.398Z,6.37
2023-02-02T01:02:52.409Z,6.34
2023-02-02T01:03:52.390Z,6.35
2023-02-02T01:04:52.372Z,6.30
2023-02-02T01:06:52.408Z,6.35
2023-02-02T01:07:52.371Z,6.33
2023-02-02T01:08:52.359Z,6.30
2023-02-02T01:09:52.359Z,6.32
2023-02-02T01:10:52.432Z,6.33
2023-02-02T01:12:52.394Z,6.34
2023-02-02T01:13:52.426Z,6.37
2023-02-02T01:14:52.407Z,6.39
2023-02-02T01:15:52.432Z,6.41
2023-02-02T01:16:52.385Z,6.47
2023-02-02T01:17:52.420Z,6.50
2023-02-02T01:18:52.438Z,6.51
2023-02-02T01:20:52.469Z,6.50
2023-02-02T01:21:52.390Z,6.42
2023-02-02T01:22:52.425Z,6.39
2023-02-02T01:23:52.470Z,6.37
2023-02-02T01:24:52.426Z,6.36
2023-02-02T01:25:52.432Z,6.41
2023-02-02T01:26:52.481Z,6.30
2023-02-02T01:27:52.396Z,6.21
2023-02-02T01:28:52.438Z,6.16
2023-02-02T01:29:52.431Z,6.12
2023-02-02T01:30:52.434Z,6.16
2023-02-02T01:31:52.476Z,6.22
2023-02-02T01:32:52.444Z,6.23
2023-02-02T01:33:52.476Z,6.27
2023-02-02T01:34:52.467Z,6.24
2023-02-02T01:35:52.446Z,6.25
2023-02-02T01:36:52.459Z,6.29
2023-02-02T01:37:52.461Z,6.22
2023-02-02T01:38:52.451Z,6.21
2023-02-02T01:39:52.468Z,6.16
2023-02-02T01:40:52.482Z,6.15
2023-02-02T01:41:52.507Z,6.16
2023-02-02T01:42:52.419Z,6.21
2023-02-02T01:43:52.432Z,6.31
2023-02-02T01:44:52.493Z,6.33
2023-02-02T01:45:52.506Z,6.40
2023-02-02T01:46:52.522Z,6.41
2023-02-02T01:47:52.449Z,6.40
2023-02-02T01:48:52.449Z,6.39
2023-02-02T01:49:52.449Z,6.44
2023-02-02T01:50:52.476Z,6.39
2023-02-02T01:51:52.481Z,6.43
2023-02-02T01:53:52.490Z,6.47
2023-02-02T01:54:52.579Z,6.50
2023-02-02T01:55:52.513Z,6.53
2023-02-02T01:56:52.509Z,6.56
2023-02-02T01:57:52.532Z,6.55
2023-02-02T01:59:52.528Z,6.56
2023-02-02T02:00:52.596Z,6.59
2023-02-02T02:01:52.472Z,6.65
2023-02-02T02:02:52.472Z,6.69
2023-02-02T02:03:52.542Z,6.70
2023-02-02T02:04:52.513Z,6.63
2023-02-02T02:05:52.496Z,6.61
2023-02-02T02:06:52.486Z,6.58
2023-02-02T02:07:52.493Z,6.56
2023-02-02T02:08:52.519Z,6.58
2023-02-02T02:09:52.569Z,6.60
2023-02-02T02:10:52.525Z,6.61
2023-02-02T02:11:52.506Z,6.66
2023-02-02T02:13:52.547Z,6.68
2023-02-02T02:14:52.548Z,6.70
2023-02-02T02:15:52.508Z,6.74
2023-02-02T02:16:52.596Z,6.79
2023-02-02T02:18:52.510Z,6.80
2023-02-02T02:19:52.553Z,6.77
2023-02-02T02:21:52.582Z,6.75
2023-02-02T02:22:52.530Z,6.72
2023-02-02T02:23:52.532Z,6.71
2023-02-02T02:24:52.562Z,6.73
2023-02-02T02:25:52.595Z,6.75
2023-02-02T02:26:52.676Z,6.69
2023-02-02T02:27:52.542Z,6.67
2023-02-02T02:28:52.557Z,6.64
2023-02-02T02:29:52.613Z,6.67
2023-02-02T02:31:52.692Z,6.69
2023-02-02T02:32:52.586Z,6.67
2023-02-02T02:33:52.612Z,6.68
2023-02-02T02:34:52.596Z,6.69
2023-02-02T02:35:52.599Z,6.58
2023-02-02T02:36:52.563Z,6.54
2023-02-02T02:37:52.632Z,6.48
2023-02-02T02:39:52.611Z,6.45
2023-02-02T02:40:52.623Z,6.37
2023-02-02T02:41:52.573Z,6.27
2023-02-02T02:43:52.569Z,6.25
2023-02-02T02:44:52.577Z,6.24
2023-02-02T02:46:52.624Z,6.18
2023-02-02T02:47:52.684Z,6.15
2023-02-02T02:48:52.599Z,6.07
2023-02-02T02:49:52.618Z,6.06
2023-02-02T02:50:52.607Z,5.94
2023-02-02T02:51:52.602Z,5.95
2023-02-02T02:52:52.648Z,6.00
2023-02-02T02:53:52.630Z,6.03
2023-02-02T02:54:52.646Z,6.04
2023-02-02T02:55:52.633Z,6.01
2023-02-02T02:56:52.617Z,5.99
2023-02-02T02:57:52.599Z,5.94
2023-02-02T02:58:52.643Z,5.95
2023-02-02T02:59:52.655Z,5.97
2023-02-02T03:00:52.661Z,5.93
2023-02-02T03:01:52.760Z,5.94
2023-02-02T03:02:52.810Z,5.90
2023-02-02T03:03:52.661Z,5.79
2023-02-02T03:04:52.660Z,5.76
2023-02-02T03:05:52.665Z,5.78
2023-02-02T03:06:52.683Z,5.80
2023-02-02T03:07:52.671Z,5.82
2023-02-02T03:08:52.670Z,5.89
2023-02-02T03:09:52.682Z,5.96
2023-02-02T03:10:52.698Z,6.01
2023-02-02T03:11:52.697Z,6.04
2023-02-02T03:12:52.642Z,6.06
2023-02-02T03:15:52.671Z,6.04
2023-02-02T03:16:52.704Z,6.00
2023-02-02T03:17:52.692Z,5.96
2023-02-02T03:18:52.724Z,5.88
2023-02-02T03:19:52.714Z,5.86
2023-02-02T03:20:52.717Z,5.74
2023-02-02T03:21:52.676Z,5.67
2023-02-02T03:22:52.668Z,5.63
2023-02-02T03:23:52.753Z,5.54
2023-02-02T03:24:52.709Z,5.51
2023-02-02T03:25:52.717Z,5.44
2023-02-02T03:26:52.774Z,5.38
2023-02-02T03:28:52.752Z,5.44
2023-02-02T03:29:52.756Z,5.52
2023-02-02T03:30:52.857Z,5.57
2023-02-02T03:31:52.712Z,5.52
2023-02-02T03:32:52.687Z,5.54
2023-02-02T03:33:52.761Z,5.53
2023-02-02T03:34:52.741Z,5.48
2023-02-02T03:35:52.737Z,5.50
2023-02-02T03:36:52.746Z,5.54
2023-02-02T03:37:52.744Z,5.58
2023-02-02T03:38:52.781Z,5.47
2023-02-02T03:39:53.790Z,5.42
2023-02-02T03:40:52.704Z,5.36
2023-02-02T03:41:52.710Z,5.25
2023-02-02T03:42:52.767Z,5.18
2023-02-02T03:43:52.759Z,5.13
2023-02-02T03:44:52.766Z,5.14
2023-02-02T03:45:52.746Z,5.19
2023-02-02T03:47:52.737Z,5.17
2023-02-02T03:48:52.750Z,5.15
2023-02-02T03:49:52.732Z,5.10
2023-02-02T03:50:52.776Z,5.11
2023-02-02T03:52:52.786Z,5.06
2023-02-02T03:53:52.736Z,5.09
2023-02-02T03:55:52.765Z,5.13
2023-02-02T03:56:52.835Z,5.18
2023-02-02T03:57:52.760Z,5.22
2023-02-02T03:58:52.799Z,5.28
2023-02-02T03:59:52.791Z,5.27
2023-02-02T04:00:52.795Z,5.29
2023-02-02T04:01:52.935Z,5.30
2023-02-02T04:02:52.855Z,5.34
2023-02-02T04:03:52.800Z,5.40
2023-02-02T04:04:52.808Z,5.42
2023-02-02T04:05:52.783Z,5.38
2023-02-02T04:06:52.809Z,5.41
2023-02-02T04:07:52.833Z,5.40
2023-02-02T04:08:52.825Z,5.30
2023-02-02T04:09:52.788Z,5.11
2023-02-02T04:10:52.796Z,5.10
2023-02-02T04:11:52.827Z,5.12
2023-02-02T04:12:52.837Z,5.13
2023-02-02T04:13:52.830Z,5.17
2023-02-02T04:14:53.032Z,5.21
2023-02-02T04:15:52.858Z,5.11
2023-02-02T04:16:52.800Z,5.06
2023-02-02T04:17:52.893Z,5.11
2023-02-02T04:18:52.817Z,5.12
2023-02-02T04:19:52.847Z,5.07
2023-02-02T04:20:52.808Z,5.09
2023-02-02T04:21:52.818Z,5.12
2023-02-02T04:22:52.819Z,5.18
2023-02-02T04:23:52.833Z,5.21
2023-02-02T04:24:52.850Z,5.15
2023-02-02T04:25:52.825Z,5.14
2023-02-02T04:26:52.940Z,5.09
2023-02-02T04:27:52.922Z,5.12
2023-02-02T04:28:52.827Z,5.13
2023-02-02T04:30:52.979Z,5.20
2023-02-02T04:32:52.891Z,5.26
2023-02-02T04:33:52.854Z,5.30
2023-02-02T04:34:52.856Z,5.31
2023-02-02T04:35:52.858Z,5.30
2023-02-02T04:36:52.860Z,5.25
2023-02-02T04:37:52.914Z,5.29
2023-02-02T04:38:52.865Z,5.24
2023-02-02T04:39:52.867Z,5.28
2023-02-02T04:40:52.873Z,5.29
2023-02-02T04:41:52.857Z,5.23
2023-02-02T04:42:52.895Z,5.31
2023-02-02T04:43:52.899Z,5.25
2023-02-02T04:44:52.921Z,5.30
2023-02-02T04:46:52.867Z,5.32
2023-02-02T04:47:52.954Z,5.31
2023-02-02T04:48:52.924Z,5.30
2023-02-02T04:49:52.874Z,5.31
2023-02-02T04:50:52.908Z,5.34
2023-02-02T04:51:52.935Z,5.33
2023-02-02T04:52:52.930Z,5.32
2023-02-02T04:53:52.888Z,5.35
2023-02-02T04:54:52.905Z,5.39
2023-02-02T04:56:52.932Z,5.41
2023-02-02T04:57:52.999Z,5.48
2023-02-02T04:58:52.931Z,5.54
2023-02-02T04:59:53.313Z,5.52
2023-02-02T05:00:53.021Z,5.49
2023-02-02T05:01:52.952Z,5.46
2023-02-02T05:02:52.947Z,5.43
2023-02-02T05:03:52.983Z,5.39
2023-02-02T05:04:52.962Z,5.38
2023-02-02T05:05:53.002Z,5.39
2023-02-02T05:06:52.960Z,5.41
2023-02-02T05:07:52.927Z,5.39
2023-02-02T05:08:52.963Z,5.38
2023-02-02T05:09:52.943Z,5.41
2023-02-02T05:10:53.008Z,5.44
2023-02-02T05:11:52.961Z,5.50
2023-02-02T05:12:52.981Z,5.54
2023-02-02T05:13:52.940Z,5.60
2023-02-02T05:14:52.970Z,5.58
2023-02-02T05:15:52.985Z,5.57
2023-02-02T05:16:53.086Z,5.56
2023-02-02T05:17:52.939Z,5.45
2023-02-02T05:18:52.994Z,5.46
2023-02-02T05:19:53.013Z,5.51
2023-02-02T05:20:52.944Z,5.58
2023-02-02T05:21:52.950Z,5.62
2023-02-02T05:22:52.990Z,5.59
2023-02-02T05:23:53.052Z,5.61
2023-02-02T05:24:53.003Z,5.63
2023-02-02T05:25:53.033Z,5.64
2023-02-02T05:26:53.068Z,5.67
2023-02-02T05:27:53.015Z,5.66
2023-02-02T05:28:53.024Z,5.67
2023-02-02T05:29:53.024Z,5.58
2023-02-02T05:30:53.076Z,5.59
2023-02-02T05:31:53.098Z,5.63
2023-02-02T05:32:52.997Z,5.70
2023-02-02T05:33:53.022Z,5.77
2023-02-02T05:34:53.029Z,5.80
2023-02-02T05:35:53.031Z,5.82
2023-02-02T05:36:53.088Z,5.86
2023-02-02T05:37:53.038Z,5.85
2023-02-02T05:39:53.045Z,5.87
2023-02-02T05:40:53.011Z,5.88
2023-02-02T05:41:52.996Z,5.90
2023-02-02T05:42:53.009Z,5.92
2023-02-02T05:43:53.004Z,5.90
2023-02-02T05:44:53.054Z,5.92
2023-02-02T05:45:53.086Z,5.93
2023-02-02T05:46:53.116Z,5.94
2023-02-02T05:47:53.051Z,5.96
2023-02-02T05:48:53.061Z,5.89
2023-02-02T05:49:53.101Z,5.83
2023-02-02T05:50:53.054Z,5.78
2023-02-02T05:51:53.041Z,5.74
2023-02-02T05:52:53.053Z,5.76
2023-02-02T05:53:53.046Z,5.75
2023-02-02T05:54:53.072Z,5.76
2023-02-02T05:55:53.072Z,5.79
2023-02-02T05:56:53.084Z,5.83
2023-02-02T05:57:53.090Z,5.87
2023-02-02T05:58:53.107Z,5.92
2023-02-02T05:59:53.093Z,5.97
2023-02-02T06:00:55.021Z,5.99
2023-02-02T06:01:53.062Z,6.02
2023-02-02T06:02:53.167Z,6.03
2023-02-02T06:03:53.183Z,6.06
2023-02-02T06:05:53.119Z,6.07
2023-02-02T06:06:53.101Z,6.10
2023-02-02T06:07:53.219Z,6.08
2023-02-02T06:08:53.104Z,6.04
2023-02-02T06:09:53.108Z,6.03
2023-02-02T06:10:53.073Z,6.07
2023-02-02T06:11:53.113Z,6.10
2023-02-02T06:12:53.119Z,6.13
2023-02-02T06:13:53.093Z,6.18
2023-02-02T06:14:53.130Z,6.24
2023-02-02T06:15:53.223Z,6.28
2023-02-02T06:16:53.145Z,6.30
2023-02-02T06:17:53.238Z,6.32
2023-02-02T06:18:53.133Z,6.34
2023-02-02T06:19:53.135Z,6.37
2023-02-02T06:20:53.152Z,6.39
2023-02-02T06:21:53.120Z,6.41
2023-02-02T06:22:53.167Z,6.43
2023-02-02T06:24:53.096Z,6.46
2023-02-02T06:25:53.109Z,6.45
2023-02-02T06:26:53.188Z,6.37
2023-02-02T06:27:53.165Z,6.27
2023-02-02T06:28:53.118Z,6.24
2023-02-02T06:29:53.151Z,6.21
2023-02-02T06:30:53.228Z,6.23
2023-02-02T06:31:53.358Z,6.21
2023-02-02T06:32:53.169Z,6.18
2023-02-02T06:33:53.168Z,6.15
2023-02-02T06:34:53.186Z,6.14
2023-02-02T06:36:53.148Z,6.13
2023-02-02T06:38:53.171Z,6.15
2023-02-02T06:39:53.163Z,6.16
2023-02-02T06:40:53.181Z,6.19
2023-02-02T06:41:53.183Z,6.23
2023-02-02T06:42:53.140Z,6.24
2023-02-02T06:43:53.199Z,6.20
2023-02-02T06:44:53.166Z,6.03
2023-02-02T06:45:53.243Z,6.00
2023-02-02T06:46:53.181Z,5.97
2023-02-02T06:47:53.181Z,5.93
2023-02-02T06:48:53.259Z,5.95
2023-02-02T06:49:53.173Z,5.96
2023-02-02T06:51:53.215Z,5.97
2023-02-02T06:52:53.180Z,5.99
2023-02-02T06:53:53.218Z,6.02
2023-02-02T06:54:53.231Z,6.05
2023-02-02T06:55:53.219Z,6.07
2023-02-02T06:57:53.234Z,5.98
2023-02-02T06:58:53.232Z,5.90
2023-02-02T06:59:53.231Z,5.88
2023-02-02T07:00:53.250Z,5.90
2023-02-02T07:01:53.404Z,5.94
2023-02-02T07:02:53.324Z,5.98
2023-02-02T07:03:53.283Z,5.99
2023-02-02T07:04:53.235Z,6.03
2023-02-02T07:05:53.248Z,6.11
2023-02-02T07:06:53.249Z,6.16
2023-02-02T07:07:53.256Z,6.23
2023-02-02T07:09:01.804Z,6.26
2023-02-02T07:09:58.051Z,6.29
2023-02-02T07:11:10.793Z,6.32
2023-02-02T07:11:53.289Z,6.35
2023-02-02T07:12:53.259Z,6.32
2023-02-02T07:13:53.270Z,6.28
2023-02-02T07:14:53.225Z,6.25
2023-02-02T07:18:53.292Z,6.28
2023-02-02T07:19:53.267Z,6.26
2023-02-02T07:20:53.242Z,6.22
2023-02-02T07:21:53.250Z,6.21
2023-02-02T07:22:53.287Z,6.17
2023-02-02T07:23:53.292Z,6.16
2023-02-02T07:24:53.333Z,6.17
2023-02-02T07:25:53.297Z,6.16
2023-02-02T07:26:53.344Z,6.18
2023-02-02T07:28:53.302Z,6.20
2023-02-02T07:29:53.294Z,6.22
2023-02-02T07:30:53.403Z,6.27
2023-02-02T07:31:53.379Z,6.29
2023-02-02T07:32:53.345Z,6.28
2023-02-02T07:34:53.494Z,6.26
2023-02-02T07:35:53.330Z,6.28
2023-02-02T07:36:53.329Z,6.15
2023-02-02T07:37:53.390Z,6.14
2023-02-02T07:38:53.283Z,6.17
2023-02-02T07:39:53.330Z,6.20
2023-02-02T07:40:53.373Z,6.19
2023-02-02T07:41:53.353Z,6.24
2023-02-02T07:42:53.358Z,6.29
2023-02-02T07:43:53.340Z,6.34
2023-02-02T07:44:53.342Z,6.39
2023-02-02T07:45:53.342Z,6.38
2023-02-02T07:47:53.325Z,6.39
2023-02-02T07:48:53.343Z,6.33
2023-02-02T07:50:53.328Z,6.31
2023-02-02T07:51:53.342Z,6.29
2023-02-02T07:52:53.367Z,6.36
2023-02-02T07:53:53.357Z,6.41
2023-02-02T07:55:02.463Z,6.50
2023-02-02T07:55:53.333Z,6.53
2023-02-02T07:56:53.345Z,6.55
2023-02-02T07:57:53.344Z,6.61
2023-02-02T07:58:53.384Z,6.70
2023-02-02T07:59:53.375Z,6.71
2023-02-02T08:00:53.416Z,6.74
2023-02-02T08:01:53.427Z,6.72
2023-02-02T08:02:53.453Z,6.73
2023-02-02T08:03:53.386Z,6.74
2023-02-02T08:04:53.380Z,6.76
2023-02-02T08:05:53.419Z,6.73
2023-02-02T08:07:53.398Z,6.74
2023-02-02T08:08:53.406Z,6.72
2023-02-02T08:09:53.362Z,6.73
2023-02-02T08:10:53.360Z,6.80
2023-02-02T08:11:53.414Z,6.81
2023-02-02T08:12:53.401Z,6.82
2023-02-02T08:13:53.447Z,6.70
2023-02-02T08:14:53.432Z,6.71
2023-02-02T08:16:53.434Z,6.63
2023-02-02T08:17:53.431Z,6.59
2023-02-02T08:18:53.438Z,6.65
2023-02-02T08:19:53.425Z,6.69
2023-02-02T08:20:53.401Z,6.68
2023-02-02T08:21:53.426Z,6.64
2023-02-02T08:22:53.465Z,6.68
2023-02-02T08:23:53.482Z,6.65
2023-02-02T08:24:53.424Z,6.68
2023-02-02T08:25:53.401Z,6.73
2023-02-02T08:26:53.478Z,6.79
2023-02-02T08:27:53.438Z,6.77
2023-02-02T08:29:53.416Z,6.82
2023-02-02T08:30:53.485Z,6.89
2023-02-02T08:31:53.522Z,6.95
2023-02-02T08:32:53.428Z,7.00
2023-02-02T08:33:53.491Z,7.02
2023-02-02T08:34:53.451Z,7.03
2023-02-02T08:35:53.452Z,6.95
2023-02-02T08:36:53.452Z,6.90
2023-02-02T08:37:53.472Z,6.91
2023-02-02T08:38:53.481Z,6.93
2023-02-02T08:39:53.510Z,6.89
2023-02-02T08:40:53.487Z,6.91
2023-02-02T08:41:53.514Z,6.94
2023-02-02T08:42:53.485Z,6.88
2023-02-02T08:46:13.025Z,6.92
2023-02-02T08:46:13.189Z,6.91
2023-02-02T08:46:53.536Z,6.87
2023-02-02T08:48:09.323Z,6.85
2023-02-02T08:48:53.495Z,6.81
2023-02-02T08:49:53.547Z,6.83
2023-02-02T08:50:53.464Z,6.90
2023-02-02T08:51:53.536Z,6.95
2023-02-02T08:52:53.517Z,7.04
2023-02-02T08:53:53.517Z,7.05
2023-02-02T08:54:53.521Z,7.07
2023-02-02T08:55:53.485Z,7.10
2023-02-02T08:56:53.498Z,7.17
2023-02-02T08:57:53.551Z,7.22
2023-02-02T08:58:53.525Z,7.24
2023-02-02T09:00:53.513Z,7.22
2023-02-02T09:01:53.564Z,7.24
2023-02-02T09:02:53.755Z,7.26
2023-02-02T09:03:53.537Z,7.18
2023-02-02T09:07:54.734Z,7.04
2023-02-02T09:08:58.631Z,7.05
2023-02-02T09:10:53.565Z,7.01
2023-02-02T09:11:53.515Z,6.96
2023-02-02T09:12:53.634Z,6.99
2023-02-02T09:14:53.563Z,6.97
2023-02-02T09:15:53.525Z,7.02
2023-02-02T09:16:53.601Z,7.05
2023-02-02T09:17:53.547Z,7.12
2023-02-02T09:18:53.577Z,7.09
2023-02-02T09:20:53.592Z,7.17
2023-02-02T09:21:53.587Z,7.21
2023-02-02T09:28:55.088Z,7.51
2023-02-02T09:29:53.583Z,7.52
2023-02-02T09:30:53.660Z,7.56
2023-02-02T09:31:53.729Z,7.55
2023-02-02T09:32:53.623Z,7.51
2023-02-02T09:33:53.577Z,7.47
2023-02-02T09:34:55.152Z,7.42
2023-02-02T09:36:53.601Z,7.46
2023-02-02T09:37:53.630Z,7.50
2023-02-02T09:38:53.635Z,7.54
2023-02-02T09:39:53.642Z,7.56
2023-02-02T09:40:53.717Z,7.58
2023-02-02T09:41:53.667Z,7.61
2023-02-02T09:42:53.597Z,7.62
2023-02-02T09:43:53.637Z,7.61
2023-02-02T09:44:53.681Z,7.66
2023-02-02T09:45:53.643Z,7.64
2023-02-02T09:46:53.756Z,7.68
2023-02-02T09:47:53.651Z,7.67
2023-02-02T09:48:53.655Z,7.69
2023-02-02T09:49:53.701Z,7.72
2023-02-02T09:50:53.626Z,7.73
2023-02-02T09:51:53.667Z,7.78
2023-02-02T09:52:53.909Z,7.82
2023-02-02T09:53:56.001Z,7.80
2023-02-02T09:54:53.659Z,7.71
2023-02-02T09:55:53.620Z,7.68
2023-02-02T09:56:53.638Z,7.71
2023-02-02T09:57:53.678Z,7.73
2023-02-02T09:59:53.750Z,7.63
2023-02-02T10:00:53.730Z,7.61
2023-02-02T10:01:53.693Z,7.58
2023-02-02T10:02:53.677Z,7.54
2023-02-02T10:03:53.757Z,7.51
2023-02-02T10:04:53.730Z,7.53
2023-02-02T10:05:53.716Z,7.55
2023-02-02T10:06:53.683Z,7.54
2023-02-02T10:07:53.659Z,7.56
2023-02-02T10:08:53.648Z,7.53
2023-02-02T10:09:56.976Z,7.49
2023-02-02T10:10:53.694Z,7.48
2023-02-02T10:11:53.716Z,7.50
2023-02-02T10:12:53.687Z,7.53
2023-02-02T10:13:53.689Z,7.59
2023-02-02T10:14:53.746Z,7.65
2023-02-02T10:16:53.698Z,7.69
2023-02-02T10:17:53.675Z,7.72
2023-02-02T10:18:53.730Z,7.76
2023-02-02T10:19:53.760Z,7.82
2023-02-02T10:20:53.695Z,7.75
2023-02-02T10:21:53.722Z,7.77
2023-02-02T10:22:53.759Z,7.80
2023-02-02T10:23:53.756Z,7.87
2023-02-02T10:24:53.698Z,7.89
2023-02-02T10:25:53.701Z,7.93
2023-02-02T10:26:53.882Z,7.98
2023-02-02T10:27:53.806Z,7.99
2023-02-02T10:29:53.744Z,7.86
2023-02-02T10:30:53.955Z,7.82
2023-02-02T10:31:53.870Z,7.84
2023-02-02T10:32:53.754Z,7.91
2023-02-02T10:35:06.914Z,7.87
2023-02-02T10:36:53.719Z,7.91
2023-02-02T10:37:53.781Z,7.97
2023-02-02T10:38:53.785Z,8.00
2023-02-02T10:39:53.862Z,8.03
2023-02-02T10:40:53.785Z,8.00
2023-02-02T10:41:53.725Z,8.04
2023-02-02T10:42:53.745Z,8.10
2023-02-02T10:43:53.727Z,8.15
2023-02-02T10:44:53.750Z,8.20
2023-02-02T10:45:53.942Z,8.22
2023-02-02T10:46:57.458Z,8.31
2023-02-02T10:47:53.770Z,8.36
2023-02-02T10:48:53.802Z,8.39
2023-02-02T10:49:56.164Z,8.44
2023-02-02T10:50:53.830Z,8.47
2023-02-02T10:51:53.847Z,8.55
2023-02-02T10:52:53.940Z,8.61
2023-02-02T10:53:53.880Z,8.68
2023-02-02T10:55:53.878Z,8.59
2023-02-02T10:56:53.873Z,8.64
2023-02-02T10:58:53.848Z,8.63
2023-02-02T10:59:53.850Z,8.67
2023-02-02T11:00:53.871Z,8.66
2023-02-02T11:01:53.902Z,8.57
2023-02-02T11:02:53.958Z,8.44
2023-02-02T11:03:53.838Z,8.38
2023-02-02T11:04:53.887Z,8.41
2023-02-02T11:05:53.992Z,8.40
2023-02-02T11:06:53.989Z,8.41
2023-02-02T11:07:53.935Z,8.35
2023-02-02T11:08:53.920Z,8.34
2023-02-02T11:09:53.943Z,8.36
2023-02-02T11:10:53.911Z,8.39
2023-02-02T11:12:53.935Z,8.47
2023-02-02T11:13:54.025Z,8.53
2023-02-02T11:14:53.943Z,8.59
2023-02-02T11:15:54.075Z,8.62
2023-02-02T11:16:53.998Z,8.65
2023-02-02T11:17:54.000Z,8.59
2023-02-02T11:18:54.003Z,8.63
2023-02-02T11:19:54.044Z,8.60
2023-02-02T11:20:54.129Z,8.65
2023-02-02T11:21:54.094Z,8.71
2023-02-02T11:22:54.025Z,8.68
2023-02-02T11:24:54.024Z,8.66
2023-02-02T11:25:54.021Z,8.69
2023-02-02T11:26:54.115Z,8.74
2023-02-02T11:27:54.074Z,8.73
2023-02-02T11:28:54.054Z,8.79
2023-02-02T11:29:54.100Z,8.74
2023-02-02T11:30:54.197Z,8.70
2023-02-02T11:31:54.008Z,8.62
2023-02-02T11:32:54.055Z,8.49
2023-02-02T11:33:54.000Z,8.48
2023-02-02T11:34:54.034Z,8.50
2023-02-02T11:35:54.064Z,8.51
2023-02-02T11:36:54.091Z,8.54
2023-02-02T11:37:54.075Z,8.58
2023-02-02T11:38:54.050Z,8.59
2023-02-02T11:39:54.155Z,8.55
2023-02-02T11:40:54.064Z,8.53
2023-02-02T11:41:54.015Z,8.54
2023-02-02T11:42:54.085Z,8.50
2023-02-02T11:43:54.038Z,8.52
2023-02-02T11:44:54.031Z,8.53
2023-02-02T11:45:54.052Z,8.67
2023-02-02T11:46:54.115Z,8.77
2023-02-02T11:47:54.120Z,8.84
2023-02-02T11:48:54.091Z,8.88
2023-02-02T11:49:54.066Z,8.89
2023-02-02T11:50:54.184Z,8.91
2023-02-02T11:51:54.124Z,8.99
2023-02-02T11:52:54.080Z,8.96
2023-02-02T11:53:54.148Z,8.89
2023-02-02T11:54:54.076Z,8.86
2023-02-02T11:55:54.070Z,8.85
2023-02-02T11:56:54.111Z,8.87
2023-02-02T11:57:54.103Z,8.88
2023-02-02T11:59:54.166Z,8.81
2023-02-02T12:00:58.414Z,8.67
2023-02-02T12:01:54.140Z,8.64
2023-02-02T12:02:54.074Z,8.65
2023-02-02T12:03:54.159Z,8.63
2023-02-02T12:04:54.136Z,8.71
2023-02-02T12:05:54.134Z,8.81
2023-02-02T12:06:54.182Z,8.79
2023-02-02T12:07:54.154Z,8.82
2023-02-02T12:08:54.110Z,8.85
2023-02-02T12:09:54.164Z,8.88
2023-02-02T12:10:54.168Z,8.90
2023-02-02T12:11:54.092Z,8.97
2023-02-02T12:12:54.083Z,9.02
2023-02-02T12:13:54.200Z,9.05
2023-02-02T12:14:54.127Z,9.09
2023-02-02T12:15:54.225Z,9.15
2023-02-02T12:16:54.198Z,9.20
2023-02-02T12:17:54.142Z,9.22
2023-02-02T12:18:54.138Z,9.27
2023-02-02T12:19:54.147Z,9.32
2023-02-02T12:20:54.195Z,9.36
2023-02-02T12:21:54.154Z,9.40
2023-02-02T12:24:54.201Z,9.32
2023-02-02T12:25:54.224Z,9.24
2023-02-02T12:26:54.257Z,9.21
2023-02-02T12:27:54.143Z,9.10
2023-02-02T12:29:54.329Z,9.12
2023-02-02T12:30:54.319Z,9.14
2023-02-02T12:31:54.237Z,9.17
2023-02-02T12:32:54.179Z,9.21
2023-02-02T12:33:54.194Z,9.24
2023-02-02T12:34:54.030Z,9.23
2023-02-02T12:35:54.205Z,9.24
2023-02-02T12:36:54.081Z,9.19
2023-02-02T12:37:58.881Z,9.10
2023-02-02T12:38:54.109Z,9.09
2023-02-02T12:39:54.131Z,9.04
2023-02-02T12:40:54.125Z,8.85
2023-02-02T12:41:54.096Z,8.80
2023-02-02T12:42:54.106Z,8.78
2023-02-02T12:43:54.181Z,8.83
2023-02-02T12:44:54.137Z,8.71
2023-02-02T12:45:54.205Z,8.66
2023-02-02T12:46:57.957Z,8.72
2023-02-02T12:47:54.157Z,8.77
2023-02-02T12:48:54.192Z,8.81
2023-02-02T12:49:54.110Z,8.82
2023-02-02T12:50:54.098Z,8.77
2023-02-02T12:52:54.132Z,8.78
2023-02-02T12:54:33.502Z,8.81
2023-02-02T12:54:56.004Z,8.86
2023-02-02T12:55:54.115Z,8.82
2023-02-02T12:56:54.114Z,8.84
2023-02-02T12:57:54.068Z,8.90
2023-02-02T12:58:54.149Z,8.99
2023-02-02T12:59:54.067Z,9.05
2023-02-02T13:00:54.164Z,9.13
2023-02-02T13:01:54.170Z,9.06
2023-02-02T13:04:54.132Z,9.05
2023-02-02T13:06:54.089Z,9.08
2023-02-02T13:07:54.116Z,9.10
2023-02-02T13:08:54.143Z,9.12
2023-02-02T13:09:54.106Z,9.13
2023-02-02T13:10:54.141Z,9.17
2023-02-02T13:11:54.423Z,9.20
2023-02-02T13:12:54.120Z,9.22
2023-02-02T13:13:54.123Z,9.17
2023-02-02T13:14:54.123Z,9.19
2023-02-02T13:15:54.135Z,9.24
2023-02-02T13:16:54.207Z,9.25
2023-02-02T13:17:54.128Z,9.34
2023-02-02T13:18:54.144Z,9.36
2023-02-02T13:19:54.146Z,9.39
2023-02-02T13:20:54.135Z,9.45
2023-02-02T13:21:54.218Z,9.50
2023-02-02T13:22:54.136Z,9.49
2023-02-02T13:23:54.150Z,9.51
2023-02-02T13:24:54.158Z,9.49
2023-02-02T13:25:54.229Z,9.54
2023-02-02T13:26:54.434Z,9.58
2023-02-02T13:27:54.153Z,9.49
2023-02-02T13:28:54.160Z,9.48
2023-02-02T13:29:54.162Z,9.34
2023-02-02T13:30:54.274Z,9.29
2023-02-02T13:31:54.214Z,9.34
2023-02-02T13:32:54.187Z,9.39
2023-02-02T13:33:54.177Z,9.43
2023-02-02T13:34:54.199Z,9.46
2023-02-02T13:35:54.163Z,9.45
2023-02-02T13:36:54.187Z,9.48
2023-02-02T13:37:54.242Z,9.51
2023-02-02T13:38:54.181Z,9.49
2023-02-02T13:39:54.216Z,9.50
2023-02-02T13:40:54.307Z,9.49
2023-02-02T13:41:54.191Z,9.52
2023-02-02T13:42:54.302Z,9.59
2023-02-02T13:43:54.199Z,9.57
2023-02-02T13:44:54.197Z,9.59
2023-02-02T13:45:54.213Z,9.61
2023-02-02T13:46:54.197Z,9.54
2023-02-02T13:47:54.251Z,9.58
2023-02-02T13:48:54.922Z,9.60
2023-02-02T13:49:54.216Z,9.65
2023-02-02T13:50:54.206Z,9.68
2023-02-02T13:52:54.246Z,9.71
2023-02-02T13:53:54.209Z,9.72
2023-02-02T13:55:54.249Z,9.75
2023-02-02T13:56:54.227Z,9.71
2023-02-02T13:57:54.228Z,9.67
2023-02-02T13:58:54.277Z,9.59
2023-02-02T13:59:54.250Z,9.63
2023-02-02T14:00:54.287Z,9.72
2023-02-02T14:01:54.339Z,9.76
2023-02-02T14:02:54.276Z,9.79
2023-02-02T14:03:54.257Z,9.74
2023-02-02T14:04:54.241Z,9.79
2023-02-02T14:05:54.279Z,9.82
2023-02-02T14:06:54.279Z,9.86
2023-02-02T14:07:54.261Z,9.80
2023-02-02T14:08:54.271Z,9.78
2023-02-02T14:09:54.259Z,9.81
2023-02-02T14:10:54.307Z,9.84
2023-02-02T14:11:54.251Z,9.92
2023-02-02T14:12:54.300Z,9.95
2023-02-02T14:13:54.281Z,9.99
2023-02-02T14:14:54.267Z,9.90
2023-02-02T14:15:54.309Z,9.89
2023-02-02T14:16:54.284Z,9.84
2023-02-02T14:17:54.279Z,9.78
2023-02-02T14:18:54.350Z,9.75
2023-02-02T14:19:54.275Z,9.74
2023-02-02T14:20:54.282Z,9.77
2023-02-02T14:21:54.294Z,9.78
2023-02-02T14:22:54.284Z,9.80
2023-02-02T14:23:54.293Z,9.77
2023-02-02T14:24:54.334Z,9.69
2023-02-02T14:25:55.226Z,9.65
2023-02-02T14:26:54.488Z,9.64
2023-02-02T14:27:54.315Z,9.61
2023-02-02T14:28:54.336Z,9.62
2023-02-02T14:29:54.305Z,9.58
2023-02-02T14:30:55.630Z,9.48
2023-02-02T14:31:54.450Z,9.39
2023-02-02T14:32:54.313Z,9.38
2023-02-02T14:34:54.307Z,9.39
2023-02-02T14:35:54.322Z,9.42
2023-02-02T14:37:54.337Z,9.44